Time;durP1;ratioP1;P1;durP2;ratioP2;P2;SDS_P1;SDS_P2;PMS_P1;PMS_P2;Temp;Humidity;BMP_temperature;BMP_pressure;BME280_temperature;BME280_humidity;BME280_pressure;Samples;Min_cycle;Max_cycle;Signal;HPM_P1;HPM_P2
2022/12/04 00:01:10;;;;;;;34.08;17.67;;;3.80;99.90;;;;;;4959608;28;20492;-80
2022/12/04 00:03:37;;;;;;;32.35;16.52;;;3.80;99.90;;;;;;4973877;28;20134;-80
2022/12/04 00:06:05;;;;;;;30.00;16.35;;;3.80;99.90;;;;;;4972096;28;20051;-80
2022/12/04 00:08:32;;;;;;;29.08;17.17;;;3.80;99.90;;;;;;4952563;28;20058;-80
2022/12/04 00:10:59;;;;;;;32.42;17.75;;;3.80;99.90;;;;;;4966823;28;20058;-80
2022/12/04 00:13:26;;;;;;;33.83;17.33;;;3.80;99.90;;;;;;4974729;28;20050;-80
2022/12/04 00:15:53;;;;;;;34.53;18.00;;;4.00;99.90;;;;;;4967070;28;20059;-80
2022/12/04 00:18:20;;;;;;;31.13;17.52;;;3.80;99.90;;;;;;4979073;28;20051;-80
2022/12/04 00:20:47;;;;;;;31.02;17.08;;;3.80;99.90;;;;;;4965074;29;20051;-80
2022/12/04 00:23:14;;;;;;;34.88;18.42;;;3.80;99.90;;;;;;4964732;29;20106;-80
2022/12/04 00:25:40;;;;;;;31.92;17.58;;;3.70;99.90;;;;;;4972945;28;20050;-80
2022/12/04 00:28:08;;;;;;;31.08;16.52;;;3.70;99.90;;;;;;4961021;28;20487;-80
2022/12/04 00:30:39;;;;;;;32.67;17.30;;;3.70;99.90;;;;;;4964018;28;20061;-80
2022/12/04 00:33:05;;;;;;;32.65;17.02;;;3.80;99.90;;;;;;4984423;28;20065;-80
2022/12/04 00:35:32;;;;;;;32.85;17.95;;;3.80;99.90;;;;;;4966258;28;20543;-80
2022/12/04 00:37:59;;;;;;;29.25;16.60;;;3.80;99.90;;;;;;4980690;28;20050;-80
2022/12/04 00:40:25;;;;;;;28.08;16.63;;;3.80;99.90;;;;;;4966335;28;20142;-80
2022/12/04 00:42:52;;;;;;;31.85;17.50;;;3.80;99.90;;;;;;4977661;28;20058;-80
2022/12/04 00:45:19;;;;;;;32.80;17.30;;;3.70;99.90;;;;;;4956869;28;20509;-80
2022/12/04 00:47:45;;;;;;;33.47;17.52;;;3.60;99.90;;;;;;4955148;28;20051;-80
2022/12/04 00:50:12;;;;;;;30.70;17.83;;;3.70;99.90;;;;;;4969966;28;20051;-80
2022/12/04 00:52:38;;;;;;;34.35;17.85;;;3.60;99.90;;;;;;4970078;28;20051;-81
2022/12/04 00:55:06;;;;;;;32.95;17.23;;;3.60;99.90;;;;;;4972712;28;20046;-78
2022/12/04 00:57:32;;;;;;;32.33;17.30;;;3.60;99.90;;;;;;4968074;28;20157;-78
2022/12/04 00:59:59;;;;;;;33.92;17.35;;;3.60;99.90;;;;;;4969446;28;20110;-81
2022/12/04 01:02:26;;;;;;;30.08;16.85;;;3.60;99.90;;;;;;4965700;28;20066;-78
2022/12/04 01:04:53;;;;;;;30.90;17.08;;;3.60;99.90;;;;;;4976212;28;20106;-79
2022/12/04 01:07:19;;;;;;;35.08;17.60;;;3.70;99.90;;;;;;4978847;28;20055;-79
2022/12/04 01:09:46;;;;;;;32.25;17.77;;;3.70;99.90;;;;;;4963132;28;20058;-79
2022/12/04 01:12:13;;;;;;;31.75;16.80;;;3.70;99.90;;;;;;4983967;28;20070;-79
2022/12/04 01:14:46;;;;;;;29.67;16.92;;;3.70;99.90;;;;;;4970637;28;20065;-79
2022/12/04 01:17:13;;;;;;;31.63;17.95;;;3.70;99.90;;;;;;4987466;28;20054;-78
2022/12/04 01:19:40;;;;;;;26.15;16.40;;;3.70;99.90;;;;;;4970913;28;20134;-79
2022/12/04 01:22:06;;;;;;;28.52;16.33;;;3.70;99.90;;;;;;4981080;28;20107;-78
2022/12/04 01:24:33;;;;;;;28.73;15.90;;;3.80;99.90;;;;;;4982392;28;20047;-79
2022/12/04 01:27:00;;;;;;;31.25;16.60;;;3.80;99.90;;;;;;4979639;28;20055;-78
2022/12/04 01:29:27;;;;;;;29.40;17.23;;;3.80;99.90;;;;;;4968626;28;20083;-79
2022/12/04 01:31:53;;;;;;;30.67;16.27;;;3.80;99.90;;;;;;4973494;28;20057;-77
2022/12/04 01:34:20;;;;;;;27.60;16.20;;;3.90;99.90;;;;;;4971755;28;20063;-78
2022/12/04 01:36:47;;;;;;;31.85;16.83;;;3.80;99.90;;;;;;4969382;28;20048;-78
2022/12/04 01:39:14;;;;;;;28.38;14.85;;;3.90;99.90;;;;;;4962302;28;20081;-79
2022/12/04 01:41:40;;;;;;;27.67;15.35;;;3.90;99.90;;;;;;4984027;28;20056;-78
2022/12/04 01:44:24;;;;;;;30.73;15.85;;;3.90;99.90;;;;;;4979518;28;20043;-79
2022/12/04 01:46:59;;;;;;;34.00;16.55;;;3.80;99.90;;;;;;4978377;28;20063;-79
2022/12/04 01:49:35;;;;;;;31.60;16.42;;;3.80;99.90;;;;;;4965494;28;20118;-78
2022/12/04 01:52:12;;;;;;;32.25;17.13;;;3.80;99.90;;;;;;4974249;28;20086;-78
2022/12/04 01:54:43;;;;;;;30.80;17.02;;;3.80;99.90;;;;;;4954986;28;20119;-79
2022/12/04 01:57:16;;;;;;;29.35;16.20;;;3.80;99.90;;;;;;4970072;28;20043;-79
2022/12/04 01:59:51;;;;;;;30.35;17.00;;;3.80;99.90;;;;;;4957735;28;20051;-78
2022/12/04 02:02:25;;;;;;;32.08;17.23;;;3.80;99.90;;;;;;4983371;28;20046;-78
2022/12/04 02:04:53;;;;;;;29.88;16.25;;;3.80;99.90;;;;;;4981541;28;20054;-79
2022/12/04 02:07:19;;;;;;;32.33;17.25;;;3.70;99.90;;;;;;4978756;28;20061;-78
2022/12/04 02:09:52;;;;;;;31.50;17.27;;;3.70;99.90;;;;;;4976708;28;20531;-78
2022/12/04 02:12:31;;;;;;;29.05;15.85;;;3.70;99.90;;;;;;4975287;28;20548;-78
2022/12/04 02:15:09;;;;;;;30.08;16.55;;;3.70;99.90;;;;;;4955367;28;20074;-79
2022/12/04 02:17:50;;;;;;;32.58;16.88;;;3.70;99.90;;;;;;4973458;28;20115;-78
2022/12/04 02:20:33;;;;;;;31.67;17.45;;;3.60;99.90;;;;;;4974729;28;20130;-78
2022/12/04 02:23:22;;;;;;;30.98;17.15;;;3.70;99.90;;;;;;4968644;28;20048;-78
2022/12/04 02:25:57;;;;;;;33.92;17.58;;;3.70;99.90;;;;;;4970658;28;20138;-77
2022/12/04 02:28:34;;;;;;;32.47;17.40;;;3.60;99.90;;;;;;4978708;28;20057;-79
2022/12/04 02:31:03;;;;;;;35.72;18.40;;;3.60;99.90;;;;;;4975508;28;20051;-79
2022/12/04 02:33:42;;;;;;;37.53;19.05;;;3.50;99.90;;;;;;4960917;28;20055;-79
2022/12/04 02:36:13;;;;;;;35.53;18.85;;;3.50;99.90;;;;;;4972167;28;20126;-78
2022/12/04 02:38:43;;;;;;;36.95;18.98;;;3.50;99.90;;;;;;4954113;28;20055;-78
2022/12/04 02:41:21;;;;;;;37.28;18.25;;;3.60;99.90;;;;;;4967515;28;20057;-78
2022/12/04 02:43:52;;;;;;;35.38;18.83;;;4.10;99.90;;;;;;4981170;28;20054;-78
2022/12/04 02:46:37;;;;;;;33.20;18.08;;;3.50;99.90;;;;;;4981542;28;20050;-78
2022/12/04 02:49:09;;;;;;;35.00;18.67;;;3.60;99.90;;;;;;4949907;28;20538;-79
2022/12/04 02:51:39;;;;;;;34.58;17.85;;;3.60;99.90;;;;;;4960279;28;20066;-78
2022/12/04 02:54:17;;;;;;;32.40;17.20;;;3.60;99.90;;;;;;4957686;28;20126;-78
2022/12/04 02:56:48;;;;;;;31.10;16.35;;;3.60;99.90;;;;;;4978802;28;20532;-79
2022/12/04 02:59:19;;;;;;;27.98;17.17;;;3.60;99.90;;;;;;4968888;28;20059;-79
2022/12/04 03:01:50;;;;;;;32.30;17.00;;;3.60;99.90;;;;;;4950853;28;20094;-79
2022/12/04 03:04:21;;;;;;;32.15;16.80;;;3.60;99.90;;;;;;4962332;28;20050;-79
2022/12/04 03:06:57;;;;;;;29.05;16.50;;;3.60;99.90;;;;;;4967048;28;20055;-79
2022/12/04 03:09:32;;;;;;;31.15;16.67;;;3.50;99.90;;;;;;4979155;28;20141;-79
2022/12/04 03:12:23;;;;;;;31.15;17.13;;;3.50;99.90;;;;;;4973005;28;20134;-79
2022/12/04 03:14:56;;;;;;;30.23;17.08;;;3.50;99.90;;;;;;4976548;28;20078;-79
2022/12/04 03:17:35;;;;;;;28.25;15.70;;;3.40;99.90;;;;;;4977366;28;20177;-79
2022/12/04 03:20:08;;;;;;;29.08;17.17;;;3.30;99.90;;;;;;4970163;28;20047;-79
2022/12/04 03:22:39;;;;;;;27.73;15.85;;;3.20;99.90;;;;;;4935788;28;20134;-79
2022/12/04 03:25:07;;;;;;;32.25;17.58;;;3.10;99.90;;;;;;4955489;28;20126;-77
2022/12/04 03:27:45;;;;;;;31.90;17.23;;;3.10;99.90;;;;;;4982355;28;20070;-79
2022/12/04 03:30:16;;;;;;;34.72;18.00;;;3.10;99.90;;;;;;4937032;28;20061;-78
2022/12/04 03:33:18;;;;;;;33.88;17.65;;;3.20;99.90;;;;;;4955126;28;20061;-77
2022/12/04 03:35:54;;;;;;;33.72;19.50;;;3.20;99.90;;;;;;4957073;28;20081;-79
2022/12/04 03:38:39;;;;;;;31.23;18.05;;;3.30;99.90;;;;;;4971280;28;20082;-79
2022/12/04 03:41:23;;;;;;;36.15;18.20;;;3.30;99.90;;;;;;4980216;28;20145;-79
2022/12/04 03:43:59;;;;;;;33.00;17.90;;;3.90;99.90;;;;;;4965251;28;20046;-79
2022/12/04 03:46:30;;;;;;;33.85;18.75;;;3.40;99.90;;;;;;4983476;28;20094;-79
2022/12/04 03:49:00;;;;;;;34.00;17.25;;;3.80;99.90;;;;;;4981588;28;20105;-79
2022/12/04 03:51:43;;;;;;;37.80;19.05;;;3.40;99.90;;;;;;4951773;28;20062;-79
2022/12/04 03:54:24;;;;;;;36.40;18.95;;;3.40;99.90;;;;;;4971903;28;20055;-78
2022/12/04 03:56:57;;;;;;;33.30;16.75;;;3.50;99.90;;;;;;4975129;28;20051;-79
2022/12/04 03:59:47;;;;;;;32.70;17.17;;;3.50;99.90;;;;;;4959659;28;20051;-79
2022/12/04 04:02:24;;;;;;;30.83;16.50;;;3.50;99.90;;;;;;4974147;28;20090;-79
2022/12/04 04:04:55;;;;;;;33.30;16.80;;;3.50;99.90;;;;;;4981827;28;20105;-79
2022/12/04 04:07:28;;;;;;;29.20;15.85;;;3.40;99.90;;;;;;4966509;28;20055;-78
2022/12/04 04:10:09;;;;;;;28.42;16.15;;;3.40;99.90;;;;;;4985480;28;20055;-77
2022/12/04 04:12:41;;;;;;;27.60;15.68;;;3.30;99.90;;;;;;4962818;28;20078;-79
2022/12/04 04:26:37;;;;;;;27.90;16.23;;;3.30;99.90;;;;;;4964932;28;20055;-80
2022/12/04 04:29:04;;;;;;;32.45;16.63;;;3.40;99.90;;;;;;4968299;28;20061;-81
2022/12/04 04:31:49;;;;;;;29.98;15.75;;;3.40;99.90;;;;;;4964700;28;20047;-79
2022/12/04 04:34:19;;;;;;;29.58;16.20;;;3.30;99.90;;;;;;4979208;28;20058;-78
2022/12/04 04:37:07;;;;;;;26.77;14.85;;;3.30;99.90;;;;;;4973898;28;20047;-78
2022/12/04 04:39:40;;;;;;;29.27;16.40;;;3.30;99.90;;;;;;4976524;28;20044;-78
2022/12/04 04:42:07;;;;;;;30.27;15.52;;;3.20;99.90;;;;;;4972656;28;20382;-78
2022/12/04 04:44:53;;;;;;;28.45;16.08;;;3.20;99.90;;;;;;4952777;28;20048;-78
2022/12/04 04:47:39;;;;;;;29.98;15.73;;;3.20;99.90;;;;;;4980512;28;20061;-78
2022/12/04 04:50:09;;;;;;;27.10;14.77;;;3.20;99.90;;;;;;4967853;28;20051;-78
2022/12/04 04:52:39;;;;;;;28.00;15.63;;;3.10;99.90;;;;;;4965948;28;20051;-78
2022/12/04 04:55:08;;;;;;;31.73;16.65;;;3.10;99.90;;;;;;4979447;28;20054;-78
2022/12/04 04:57:35;;;;;;;29.77;14.93;;;3.00;99.90;;;;;;4977648;28;20089;-77
2022/12/04 05:00:21;;;;;;;27.55;14.63;;;3.00;99.90;;;;;;4957819;28;20416;-79
2022/12/04 05:02:49;;;;;;;25.10;14.35;;;3.00;99.90;;;;;;4977464;28;20061;-79
2022/12/04 05:05:16;;;;;;;31.05;15.88;;;3.10;99.90;;;;;;4970076;28;20137;-79
2022/12/04 05:07:43;;;;;;;35.03;16.95;;;3.10;99.90;;;;;;4967311;28;20079;-79
2022/12/04 05:10:10;;;;;;;30.10;15.90;;;3.10;99.90;;;;;;4968768;28;20505;-78
2022/12/04 05:12:36;;;;;;;31.08;15.05;;;3.10;99.90;;;;;;4976185;28;20047;-79
2022/12/04 05:15:04;;;;;;;28.80;15.60;;;3.00;99.90;;;;;;4980584;28;20110;-79
2022/12/04 05:17:30;;;;;;;34.92;18.02;;;3.00;99.90;;;;;;4964386;28;20057;-77
2022/12/04 05:19:57;;;;;;;31.38;16.92;;;3.00;99.90;;;;;;4975948;28;20047;-78
2022/12/04 05:22:27;;;;;;;28.98;16.60;;;3.00;99.90;;;;;;4973218;28;20057;-78
2022/12/04 05:24:54;;;;;;;28.50;15.13;;;2.90;99.90;;;;;;4963544;28;20057;-79
2022/12/04 05:27:22;;;;;;;32.53;17.55;;;2.90;99.90;;;;;;4963142;28;20051;-79
2022/12/04 05:29:52;;;;;;;30.83;16.17;;;2.90;99.90;;;;;;4961790;28;20130;-79
2022/12/04 05:32:21;;;;;;;34.10;16.70;;;2.90;99.90;;;;;;4968195;28;20146;-78
2022/12/04 05:34:49;;;;;;;34.38;16.98;;;3.00;99.90;;;;;;4978299;28;20065;-79
2022/12/04 05:37:16;;;;;;;29.38;16.33;;;3.00;99.90;;;;;;4979222;28;20126;-79
2022/12/04 05:39:43;;;;;;;33.30;16.63;;;3.00;99.90;;;;;;4980445;28;20055;-78
2022/12/04 05:42:10;;;;;;;29.25;16.27;;;3.10;99.90;;;;;;4967718;28;20046;-78
2022/12/04 05:44:36;;;;;;;39.20;18.15;;;3.20;99.90;;;;;;4960573;28;20048;-77
2022/12/04 05:47:04;;;;;;;28.63;16.67;;;3.10;99.90;;;;;;4978613;28;20047;-78
2022/12/04 05:49:32;;;;;;;33.58;17.80;;;3.20;99.90;;;;;;4982360;28;20055;-79
2022/12/04 05:51:59;;;;;;;29.45;16.25;;;3.20;99.90;;;;;;4983251;28;20063;-81
2022/12/04 05:54:25;;;;;;;28.40;15.35;;;3.20;99.90;;;;;;4985140;28;20058;-80
2022/12/04 05:56:52;;;;;;;31.80;16.42;;;3.20;99.90;;;;;;4970067;28;20057;-81
2022/12/04 05:59:20;;;;;;;31.10;16.10;;;3.30;99.90;;;;;;4981388;28;20058;-80
2022/12/04 06:01:47;;;;;;;30.83;16.30;;;3.30;99.90;;;;;;4980274;28;20702;-78
2022/12/04 06:04:13;;;;;;;29.55;15.88;;;3.40;99.90;;;;;;4966985;28;20051;-77
2022/12/04 06:06:40;;;;;;;34.13;16.15;;;3.30;99.90;;;;;;4959775;28;20050;-78
2022/12/04 06:09:07;;;;;;;33.67;16.60;;;3.40;99.90;;;;;;4978004;28;20070;-79
2022/12/04 06:11:40;;;;;;;31.77;15.73;;;3.30;99.90;;;;;;4980734;28;20058;-78
2022/12/04 06:14:10;;;;;;;29.83;16.52;;;3.30;99.90;;;;;;4983631;28;20134;-78
2022/12/04 06:16:37;;;;;;;;;;;3.50;99.90;;;;;;4984333;28;20258;-78
2022/12/04 06:19:08;;;;;;;28.17;14.50;;;3.30;99.90;;;;;;4969185;28;19929;-78
2022/12/04 06:21:38;;;;;;;27.73;15.43;;;3.30;99.90;;;;;;4966645;29;20476;-79
2022/12/04 06:24:06;;;;;;;28.30;13.82;;;3.30;99.90;;;;;;4966814;29;20053;-78
2022/12/04 06:26:33;;;;;;;30.88;15.88;;;3.10;99.90;;;;;;4975385;28;20424;-79
2022/12/04 06:29:00;;;;;;;29.73;15.52;;;3.00;99.90;;;;;;4960691;28;20051;-79
2022/12/04 06:31:28;;;;;;;28.15;14.98;;;2.90;99.90;;;;;;4975086;28;20061;-79
2022/12/04 06:33:56;;;;;;;28.75;15.13;;;2.80;99.90;;;;;;4969171;28;20055;-79
2022/12/04 06:36:24;;;;;;;28.35;17.10;;;2.80;99.90;;;;;;4970529;28;20057;-79
2022/12/04 06:38:53;;;;;;;30.05;16.77;;;2.80;99.90;;;;;;4984559;28;20063;-79
2022/12/04 06:41:20;;;;;;;29.60;16.00;;;2.90;99.90;;;;;;4984029;28;20074;-79
2022/12/04 06:43:47;;;;;;;27.38;15.38;;;2.90;99.90;;;;;;4970527;29;20051;-78
2022/12/04 06:46:21;;;;;;;29.83;16.58;;;3.00;99.90;;;;;;4970874;29;20055;-78
2022/12/04 06:48:49;;;;;;;25.90;15.15;;;3.10;99.90;;;;;;4963719;29;20031;-79
2022/12/04 06:51:21;;;;;;;31.05;16.10;;;3.10;99.90;;;;;;4974633;28;20058;-79
2022/12/04 06:53:48;;;;;;;27.92;15.88;;;3.00;99.90;;;;;;4986170;28;20141;-79
2022/12/04 06:56:20;;;;;;;30.83;15.95;;;3.00;99.90;;;;;;4966463;29;20111;-79
2022/12/04 06:58:48;;;;;;;29.23;14.75;;;3.20;99.90;;;;;;4965573;29;20058;-79
2022/12/04 07:01:17;;;;;;;33.97;17.33;;;3.20;99.90;;;;;;4967936;28;20473;-79
2022/12/04 07:03:45;;;;;;;33.05;16.05;;;3.20;99.90;;;;;;4975585;28;20109;-79
2022/12/04 07:06:21;;;;;;;30.75;16.73;;;3.20;99.90;;;;;;4978436;28;20129;-79
2022/12/04 07:08:56;;;;;;;32.42;17.20;;;3.20;99.90;;;;;;4975741;28;20062;-79
2022/12/04 07:11:23;;;;;;;35.80;17.52;;;3.20;99.90;;;;;;4973075;28;20051;-79
2022/12/04 07:13:50;;;;;;;37.58;16.90;;;3.10;99.90;;;;;;4971793;28;20078;-79
2022/12/04 07:16:19;;;;;;;26.23;14.63;;;3.10;99.90;;;;;;4972973;28;20503;-79
2022/12/04 07:18:49;;;;;;;34.22;16.75;;;3.10;99.90;;;;;;4967026;28;20141;-79
2022/12/04 07:21:18;;;;;;;32.00;16.27;;;3.10;99.90;;;;;;4978580;28;20062;-79
2022/12/04 07:23:49;;;;;;;32.65;17.15;;;3.20;99.90;;;;;;4981752;28;20111;-79
2022/12/04 07:26:16;;;;;;;39.08;19.52;;;3.20;99.90;;;;;;4967216;28;20580;-79
2022/12/04 07:28:46;;;;;;;33.53;17.77;;;3.20;99.90;;;;;;4975700;28;20053;-79
2022/12/04 07:31:16;;;;;;;36.17;18.92;;;3.20;99.90;;;;;;4975059;28;20061;-79
2022/12/04 07:33:43;;;;;;;32.97;17.42;;;3.20;99.90;;;;;;4973293;28;20074;-79
2022/12/04 07:36:14;;;;;;;32.15;17.60;;;3.10;99.90;;;;;;4953609;28;20047;-79
2022/12/04 07:38:41;;;;;;;33.28;17.27;;;3.20;99.90;;;;;;4950306;28;20051;-79
2022/12/04 07:41:10;;;;;;;35.28;17.70;;;3.10;99.90;;;;;;4966611;28;20047;-79
2022/12/04 07:43:37;;;;;;;29.48;15.88;;;3.10;99.90;;;;;;4982867;28;20413;-79
2022/12/04 07:46:07;;;;;;;29.92;17.27;;;3.20;99.90;;;;;;4986657;28;20074;-78
2022/12/04 07:48:34;;;;;;;30.67;16.08;;;3.30;99.90;;;;;;4976253;28;20110;-79
2022/12/04 07:51:11;;;;;;;29.40;17.05;;;3.30;99.90;;;;;;4966912;28;20050;-79
2022/12/04 07:53:38;;;;;;;33.15;17.55;;;3.40;99.90;;;;;;4964624;28;20065;-80
2022/12/04 07:56:05;;;;;;;32.90;16.50;;;3.40;99.90;;;;;;4971739;28;20055;-79
2022/12/04 07:58:33;;;;;;;29.23;15.52;;;3.40;99.90;;;;;;4981361;28;20061;-79
2022/12/04 08:01:12;;;;;;;30.95;16.25;;;3.40;99.90;;;;;;4965170;28;20075;-79
2022/12/04 08:03:44;;;;;;;34.80;16.58;;;3.50;99.90;;;;;;4964134;29;20058;-78
2022/12/04 08:06:16;;;;;;;23.73;14.82;;;3.50;99.90;;;;;;4967249;28;20109;-79
2022/12/04 08:08:43;;;;;;;26.05;13.80;;;3.60;99.90;;;;;;4971807;28;20047;-79
2022/12/04 08:11:13;;;;;;;28.23;16.73;;;3.60;99.90;;;;;;4963454;28;20524;-78
2022/12/04 08:13:39;;;;;;;28.15;15.70;;;3.60;99.90;;;;;;4974660;28;20138;-79
2022/12/04 08:16:08;;;;;;;30.42;14.88;;;3.70;99.90;;;;;;4972640;28;20055;-78
2022/12/04 08:18:35;;;;;;;25.35;14.88;;;3.60;99.90;;;;;;4952006;28;20047;-79
2022/12/04 08:21:10;;;;;;;26.20;14.70;;;3.60;99.90;;;;;;4968205;28;20139;-79
2022/12/04 08:23:38;;;;;;;28.40;14.55;;;3.60;99.90;;;;;;4948615;28;20047;-80
2022/12/04 08:26:06;;;;;;;26.33;14.65;;;3.50;99.90;;;;;;4961151;28;20058;-79
2022/12/04 08:28:33;;;;;;;25.98;13.98;;;3.40;99.90;;;;;;4979810;28;20065;-79
2022/12/04 08:31:09;;;;;;;24.05;15.15;;;3.40;99.90;;;;;;4977557;28;20059;-79
2022/12/04 08:33:36;;;;;;;25.50;13.60;;;3.40;99.90;;;;;;4972327;28;20519;-79
2022/12/04 08:36:08;;;;;;;22.63;13.98;;;3.40;99.90;;;;;;4974283;28;20409;-79
2022/12/04 08:38:35;;;;;;;22.13;12.23;;;3.40;99.90;;;;;;4949883;28;20082;-79
2022/12/04 08:41:04;;;;;;;25.27;14.15;;;3.40;99.90;;;;;;4980122;28;20051;-79
2022/12/04 08:43:32;;;;;;;25.33;14.13;;;3.40;99.90;;;;;;4967035;28;20066;-78
2022/12/04 08:46:01;;;;;;;26.30;15.05;;;3.40;99.90;;;;;;4963072;28;20058;-79
2022/12/04 08:48:28;;;;;;;24.50;14.73;;;3.40;99.90;;;;;;4966304;28;20051;-78
2022/12/04 08:50:55;;;;;;;23.20;13.95;;;3.50;99.90;;;;;;4969286;28;20363;-81
2022/12/04 08:53:23;;;;;;;24.80;14.27;;;3.50;99.90;;;;;;4964092;29;20111;-79
2022/12/04 08:55:51;;;;;;;27.45;14.07;;;3.60;99.90;;;;;;4955458;29;20509;-78
2022/12/04 08:58:18;;;;;;;25.63;14.93;;;3.60;99.90;;;;;;4970682;28;20047;-78
2022/12/04 09:00:45;;;;;;;22.83;13.13;;;3.70;99.90;;;;;;4977480;28;20503;-79
2022/12/04 09:03:14;;;;;;;26.70;14.50;;;3.70;99.90;;;;;;4955443;28;20055;-79
2022/12/04 09:05:41;;;;;;;26.45;14.52;;;3.70;99.90;;;;;;4967719;28;20135;-79
2022/12/04 09:08:08;;;;;;;26.98;13.88;;;3.70;99.90;;;;;;4958726;28;20081;-79
2022/12/04 09:10:35;;;;;;;24.77;14.15;;;3.70;99.90;;;;;;4981705;28;20050;-79
2022/12/04 09:13:03;;;;;;;24.55;14.18;;;3.80;99.90;;;;;;4966448;28;20511;-79
2022/12/04 09:15:30;;;;;;;24.83;13.68;;;3.80;99.90;;;;;;4957103;29;20079;-79
2022/12/04 09:17:57;;;;;;;22.90;13.70;;;3.80;99.90;;;;;;4958306;29;20081;-79
2022/12/04 09:20:24;;;;;;;26.67;14.73;;;3.80;99.90;;;;;;4969309;28;20047;-79
2022/12/04 09:22:51;;;;;;;23.90;13.80;;;3.90;99.90;;;;;;4974859;28;20173;-77
2022/12/04 09:25:31;;;;;;;24.73;15.25;;;3.90;99.90;;;;;;4973994;28;20132;-78
2022/12/04 09:27:57;;;;;;;25.10;13.55;;;3.90;99.90;;;;;;4972839;28;20052;-77
2022/12/04 09:30:24;;;;;;;25.30;14.38;;;4.00;99.90;;;;;;4957588;28;20055;-79
2022/12/04 09:32:51;;;;;;;22.50;13.98;;;4.00;99.90;;;;;;4968844;28;20053;-78
2022/12/04 09:35:19;;;;;;;23.70;14.52;;;4.10;99.90;;;;;;4972019;28;20086;-78
2022/12/04 09:37:45;;;;;;;23.92;13.77;;;4.00;99.90;;;;;;4952845;23;20043;-79
2022/12/04 09:40:43;;;;;;;26.88;15.25;;;3.80;99.90;;;;;;4952252;29;20051;-79
2022/12/04 09:43:25;;;;;;;23.60;14.63;;;3.80;99.90;;;;;;4945965;29;20059;-78
2022/12/04 09:45:56;;;;;;;22.40;13.57;;;3.80;99.90;;;;;;4934146;29;20052;-79
2022/12/04 09:48:32;;;;;;;23.77;15.20;;;3.90;99.90;;;;;;4931920;29;20120;-79
2022/12/04 09:51:00;;;;;;;25.42;13.93;;;4.00;99.90;;;;;;4922454;29;20052;-79
2022/12/04 09:53:35;;;;;;;22.98;14.02;;;3.90;99.90;;;;;;4924786;29;20062;-79
2022/12/04 09:56:05;;;;;;;23.65;13.63;;;3.90;99.90;;;;;;4935761;29;20056;-79
2022/12/04 09:58:40;;;;;;;29.83;16.13;;;4.00;99.90;;;;;;4933749;29;20054;-80
2022/12/04 10:01:42;;;;;;;26.50;14.27;;;4.00;99.90;;;;;;4932581;29;20059;-80
2022/12/04 10:04:10;;;;;;;26.33;15.07;;;4.00;99.90;;;;;;4905759;29;20048;-80
2022/12/04 10:06:46;;;;;;;26.13;15.23;;;4.10;99.90;;;;;;4933761;29;20514;-80
2022/12/04 10:09:26;;;;;;;24.25;13.63;;;4.10;99.90;;;;;;4929173;29;20059;-79
2022/12/04 10:12:16;;;;;;;27.45;13.90;;;4.10;99.90;;;;;;4913031;29;20119;-80
2022/12/04 10:15:06;;;;;;;29.20;15.05;;;4.00;99.90;;;;;;4928434;29;20051;-80
2022/12/04 10:17:33;;;;;;;27.38;15.02;;;4.00;99.90;;;;;;4929844;29;20053;-80
2022/12/04 10:20:37;;;;;;;25.65;15.25;;;4.00;99.90;;;;;;4933693;29;20058;-80
2022/12/04 10:23:09;;;;;;;34.63;18.35;;;4.00;99.90;;;;;;4933343;29;20058;-79
2022/12/04 10:25:41;;;;;;;25.73;16.35;;;4.00;99.90;;;;;;4929678;29;20055;-80
2022/12/04 10:28:17;;;;;;;24.15;15.43;;;3.90;99.90;;;;;;4926288;29;20586;-80
2022/12/04 10:30:45;;;;;;;27.80;16.25;;;3.90;99.90;;;;;;4929645;29;20063;-81
2022/12/04 10:33:22;;;;;;;27.40;15.90;;;3.90;99.90;;;;;;4924188;29;20056;-80
2022/12/04 10:35:51;;;;;;;24.73;14.65;;;3.90;99.90;;;;;;4932597;29;20091;-80
2022/12/04 10:38:43;;;;;;;24.70;14.93;;;3.90;99.90;;;;;;4931375;29;20051;-80
2022/12/04 10:41:32;;;;;;;29.15;16.08;;;3.90;99.90;;;;;;4912728;29;20059;-79
2022/12/04 10:43:59;;;;;;;24.83;14.55;;;3.90;99.90;;;;;;4932691;29;20064;-79
2022/12/04 10:46:29;;;;;;;26.23;14.52;;;3.90;99.90;;;;;;4930974;29;20565;-79
2022/12/04 10:49:16;;;;;;;24.65;15.18;;;3.90;99.90;;;;;;4934707;29;20470;-79
2022/12/04 10:51:43;;;;;;;26.15;15.55;;;3.80;99.90;;;;;;4933312;29;20064;-79
2022/12/04 10:54:36;;;;;;;26.38;15.52;;;3.80;99.90;;;;;;4929685;29;20060;-80
2022/12/04 10:57:07;;;;;;;27.95;15.38;;;3.90;99.90;;;;;;4925760;29;20063;-80
2022/12/04 10:59:38;;;;;;;28.33;15.18;;;4.00;99.90;;;;;;4924894;29;20055;-80
2022/12/04 11:02:21;;;;;;;28.60;15.85;;;4.00;99.90;;;;;;4918732;29;20127;-79
2022/12/04 11:04:57;;;;;;;26.50;15.25;;;3.90;99.90;;;;;;4930662;29;20056;-79
2022/12/04 11:07:35;;;;;;;29.92;15.88;;;3.70;99.90;;;;;;4927554;29;20486;-79
2022/12/04 11:10:20;;;;;;;29.17;15.18;;;3.70;99.90;;;;;;4918534;29;20074;-80
2022/12/04 11:13:15;;;;;;;32.78;18.05;;;3.60;99.90;;;;;;4911938;29;20044;-79
2022/12/04 11:15:53;;;;;;;34.25;18.17;;;3.50;99.90;;;;;;4919562;29;20060;-79
2022/12/04 11:18:26;;;;;;;29.20;16.10;;;3.60;99.90;;;;;;4920863;29;20052;-81
2022/12/04 11:21:02;;;;;;;26.48;15.60;;;3.60;99.90;;;;;;4930615;29;20066;-79
2022/12/04 11:23:32;;;;;;;25.98;15.15;;;3.60;99.90;;;;;;4936941;29;20048;-79
2022/12/04 11:26:00;;;;;;;26.90;15.68;;;3.60;99.90;;;;;;4942649;29;20046;-79
2022/12/04 11:28:33;;;;;;;27.85;15.40;;;3.60;99.90;;;;;;4941557;29;20048;-79
2022/12/04 11:31:09;;;;;;;27.48;16.02;;;3.60;99.90;;;;;;4939741;29;20083;-79
2022/12/04 11:33:45;;;;;;;29.33;15.75;;;3.60;99.90;;;;;;4930530;29;20086;-79
2022/12/04 11:36:21;;;;;;;27.10;15.80;;;3.60;99.90;;;;;;4926405;29;20420;-79
2022/12/04 11:38:50;;;;;;;28.25;15.23;;;3.60;99.90;;;;;;4919323;29;20074;-79
2022/12/04 11:41:26;;;;;;;27.97;15.27;;;3.60;99.90;;;;;;4931116;29;20056;-80
2022/12/04 11:43:54;;;;;;;30.77;15.98;;;3.60;99.90;;;;;;4925658;29;20059;-80
2022/12/04 11:46:29;;;;;;;35.00;18.80;;;3.50;99.90;;;;;;4917995;29;20051;-79
2022/12/04 11:48:56;;;;;;;36.15;18.38;;;3.60;99.90;;;;;;4918840;29;20044;-80
2022/12/04 11:52:06;;;;;;;30.42;15.82;;;3.70;99.90;;;;;;4931838;29;20060;-80
2022/12/04 11:55:13;;;;;;;28.27;14.98;;;3.60;99.90;;;;;;4923944;29;20079;-80
2022/12/04 11:58:01;;;;;;;33.17;17.00;;;3.60;99.90;;;;;;4923955;29;20048;-80
2022/12/04 12:00:31;;;;;;;36.85;18.27;;;3.60;99.90;;;;;;4927775;29;20055;-80
2022/12/04 12:03:14;;;;;;;32.75;17.42;;;3.50;99.90;;;;;;4923357;29;20048;-78
2022/12/04 12:05:56;;;;;;;37.08;19.17;;;3.50;99.90;;;;;;4930170;29;20387;-79
2022/12/04 12:08:36;;;;;;;36.03;17.27;;;3.50;99.90;;;;;;4930732;29;20044;-80
2022/12/04 12:11:09;;;;;;;34.38;17.00;;;3.50;99.90;;;;;;4931756;29;20100;-79
2022/12/04 12:14:07;;;;;;;27.98;15.07;;;3.30;99.90;;;;;;4931256;29;20056;-79
2022/12/04 12:16:43;;;;;;;39.17;18.92;;;3.30;99.90;;;;;;4930219;29;20055;-79
2022/12/04 12:19:28;;;;;;;29.55;16.45;;;3.40;99.90;;;;;;4925378;29;20051;-79
2022/12/04 12:22:01;;;;;;;33.83;17.25;;;3.40;99.90;;;;;;4926750;29;20603;-79
2022/12/04 12:24:38;;;;;;;38.05;18.85;;;3.40;99.90;;;;;;4913104;29;20593;-79
2022/12/04 12:27:24;;;;;;;37.83;18.55;;;3.40;99.90;;;;;;4929024;29;20573;-79
2022/12/04 12:30:20;;;;;;;33.75;16.70;;;3.50;99.90;;;;;;4931679;29;20060;-79
2022/12/04 12:33:11;;;;;;;34.80;17.50;;;3.40;99.90;;;;;;4930784;29;20136;-79
2022/12/04 12:35:46;;;;;;;38.25;18.20;;;3.50;99.90;;;;;;4926483;29;20063;-79
2022/12/04 12:38:22;;;;;;;32.40;16.52;;;3.50;99.90;;;;;;4925166;29;20048;-80
2022/12/04 12:40:56;;;;;;;35.38;18.63;;;3.50;99.90;;;;;;4924106;29;20051;-79
2022/12/04 12:43:32;;;;;;;31.52;18.00;;;3.50;99.90;;;;;;4917359;29;20043;-80
2022/12/04 12:46:14;;;;;;;31.40;17.05;;;3.40;99.90;;;;;;4931862;29;20438;-80
2022/12/04 12:48:59;;;;;;;32.38;16.75;;;3.40;99.90;;;;;;4930523;29;20212;-79
2022/12/04 12:51:49;;;;;;;34.25;18.00;;;3.40;99.90;;;;;;4936269;29;20114;-79
2022/12/04 12:54:52;;;;;;;31.30;17.73;;;3.30;99.90;;;;;;4932818;29;20056;-79
2022/12/04 12:57:41;;;;;;;34.22;17.00;;;3.30;99.90;;;;;;4888043;29;20059;-79
2022/12/04 13:00:16;;;;;;;41.42;17.80;;;3.20;99.90;;;;;;4929860;29;20051;-80
2022/12/04 13:02:52;;;;;;;32.40;16.52;;;3.20;99.90;;;;;;4926055;29;20043;-79
2022/12/04 13:05:26;;;;;;;35.75;18.98;;;3.20;99.90;;;;;;4946665;28;20047;-79
2022/12/04 13:08:09;;;;;;;34.00;17.52;;;3.20;99.90;;;;;;4927803;29;20060;-80
2022/12/04 13:10:43;;;;;;;36.92;19.15;;;3.20;99.90;;;;;;4921169;29;20537;-79
2022/12/04 13:13:26;;;;;;;37.92;19.00;;;3.20;99.90;;;;;;4928829;29;20396;-79
2022/12/04 13:16:25;;;;;;;37.03;18.33;;;3.20;99.90;;;;;;4932752;29;20048;-80
2022/12/04 13:18:58;;;;;;;37.10;19.50;;;3.20;99.90;;;;;;4920519;29;20455;-79